sensor_id;sensor_type;location;lat;lon;timestamp;pressure;altitude;pressure_sealevel;temperature;humidity
65614;BME280;52283;49.292;10.572;2023-02-10T00:01:28;98224.19;;;-5.55;100.00
65614;BME280;52283;49.292;10.572;2023-02-10T00:03:55;98222.69;;;-5.84;100.00
65614;BME280;52283;49.292;10.572;2023-02-10T00:06:23;98220.19;;;-6.08;100.00
65614;BME280;52283;49.292;10.572;2023-02-10T00:08:53;98229.00;;;-5.99;100.00
65614;BME280;52283;49.292;10.572;2023-02-10T00:11:20;98226.88;;;-6.06;100.00
65614;BME280;52283;49.292;10.572;2023-02-10T00:14:08;98219.41;;;-6.09;100.00
65614;BME280;52283;49.292;10.572;2023-02-10T00:16:35;98215.81;;;-6.13;100.00
65614;BME280;52283;49.292;10.572;2023-02-10T00:19:01;98205.00;;;-6.09;100.00
65614;BME280;52283;49.292;10.572;2023-02-10T00:21:28;98213.63;;;-6.23;100.00
65614;BME280;52283;49.292;10.572;2023-02-10T00:23:56;98212.72;;;-6.27;100.00
65614;BME280;52283;49.292;10.572;2023-02-10T00:26:22;98211.69;;;-6.23;100.00
65614;BME280;52283;49.292;10.572;2023-02-10T00:28:50;98229.66;;;-6.34;100.00
65614;BME280;52283;49.292;10.572;2023-02-10T00:31:17;98221.97;;;-6.16;100.00
65614;BME280;52283;49.292;10.572;2023-02-10T00:33:44;98221.44;;;-6.22;100.00
65614;BME280;52283;49.292;10.572;2023-02-10T00:36:13;98228.38;;;-6.24;100.00
65614;BME280;52283;49.292;10.572;2023-02-10T00:38:41;98233.97;;;-6.33;100.00
65614;BME280;52283;49.292;10.572;2023-02-10T00:41:11;98232.28;;;-6.37;100.00
65614;BME280;52283;49.292;10.572;2023-02-10T00:43:37;98238.25;;;-6.32;100.00
65614;BME280;52283;49.292;10.572;2023-02-10T00:46:05;98242.47;;;-6.34;100.00
65614;BME280;52283;49.292;10.572;2023-02-10T00:48:32;98247.31;;;-6.43;100.00
65614;BME280;52283;49.292;10.572;2023-02-10T00:50:58;98236.16;;;-6.38;100.00
65614;BME280;52283;49.292;10.572;2023-02-10T00:53:25;98244.66;;;-6.40;100.00
65614;BME280;52283;49.292;10.572;2023-02-10T00:55:52;98242.13;;;-6.33;100.00
65614;BME280;52283;49.292;10.572;2023-02-10T00:58:20;98245.94;;;-6.50;100.00
65614;BME280;52283;49.292;10.572;2023-02-10T01:00:47;98235.09;;;-6.34;100.00
65614;BME280;52283;49.292;10.572;2023-02-10T01:03:14;98234.66;;;-6.36;100.00
65614;BME280;52283;49.292;10.572;2023-02-10T01:05:40;98254.97;;;-6.18;100.00
65614;BME280;52283;49.292;10.572;2023-02-10T01:08:07;98258.06;;;-6.03;100.00
65614;BME280;52283;49.292;10.572;2023-02-10T01:10:34;98259.53;;;-6.06;100.00
65614;BME280;52283;49.292;10.572;2023-02-10T01:13:01;98258.47;;;-6.17;100.00
65614;BME280;52283;49.292;10.572;2023-02-10T01:15:29;98267.75;;;-6.34;100.00
65614;BME280;52283;49.292;10.572;2023-02-10T01:17:56;98260.13;;;-6.28;100.00
65614;BME280;52283;49.292;10.572;2023-02-10T01:20:22;98267.41;;;-6.32;100.00
65614;BME280;52283;49.292;10.572;2023-02-10T01:22:49;98262.13;;;-6.25;100.00
65614;BME280;52283;49.292;10.572;2023-02-10T01:25:16;98262.13;;;-6.41;100.00
65614;BME280;52283;49.292;10.572;2023-02-10T01:27:42;98265.56;;;-6.44;100.00
65614;BME280;52283;49.292;10.572;2023-02-10T01:30:09;98268.44;;;-6.37;100.00
65614;BME280;52283;49.292;10.572;2023-02-10T01:32:38;98271.56;;;-6.51;100.00
65614;BME280;52283;49.292;10.572;2023-02-10T01:35:05;98263.16;;;-6.46;100.00
65614;BME280;52283;49.292;10.572;2023-02-10T01:37:33;98263.63;;;-6.28;100.00
65614;BME280;52283;49.292;10.572;2023-02-10T01:40:01;98262.13;;;-6.41;100.00
65614;BME280;52283;49.292;10.572;2023-02-10T01:42:28;98261.56;;;-6.19;100.00
65614;BME280;52283;49.292;10.572;2023-02-10T01:45:14;98268.31;;;-6.12;100.00
65614;BME280;52283;49.292;10.572;2023-02-10T01:47:43;98275.59;;;-6.17;100.00
65614;BME280;52283;49.292;10.572;2023-02-10T01:50:11;98276.97;;;-6.38;100.00
65614;BME280;52283;49.292;10.572;2023-02-10T01:52:38;98281.31;;;-6.22;100.00
65614;BME280;52283;49.292;10.572;2023-02-10T01:55:08;98273.50;;;-6.23;100.00
65614;BME280;52283;49.292;10.572;2023-02-10T01:57:37;98276.63;;;-6.37;100.00
65614;BME280;52283;49.292;10.572;2023-02-10T02:00:07;98263.56;;;-6.16;100.00
65614;BME280;52283;49.292;10.572;2023-02-10T02:02:34;98262.59;;;-6.23;100.00
65614;BME280;52283;49.292;10.572;2023-02-10T02:05:05;98260.78;;;-6.03;100.00
65614;BME280;52283;49.292;10.572;2023-02-10T02:07:34;98251.38;;;-5.90;100.00
65614;BME280;52283;49.292;10.572;2023-02-10T02:10:03;98255.06;;;-5.98;100.00
65614;BME280;52283;49.292;10.572;2023-02-10T02:12:39;98261.47;;;-6.06;100.00
65614;BME280;52283;49.292;10.572;2023-02-10T02:15:14;98259.72;;;-6.15;100.00
65614;BME280;52283;49.292;10.572;2023-02-10T02:17:48;98262.25;;;-6.22;100.00
65614;BME280;52283;49.292;10.572;2023-02-10T02:20:35;98246.88;;;-6.30;100.00
65614;BME280;52283;49.292;10.572;2023-02-10T02:26:39;98263.38;;;-6.38;100.00
65614;BME280;52283;49.292;10.572;2023-02-10T02:29:46;98272.66;;;-6.39;100.00
65614;BME280;52283;49.292;10.572;2023-02-10T02:32:18;98264.41;;;-6.27;100.00
65614;BME280;52283;49.292;10.572;2023-02-10T02:34:49;98278.16;;;-6.24;100.00
65614;BME280;52283;49.292;10.572;2023-02-10T02:37:19;98273.91;;;-6.37;100.00
65614;BME280;52283;49.292;10.572;2023-02-10T02:39:48;98268.41;;;-6.09;100.00
65614;BME280;52283;49.292;10.572;2023-02-10T02:42:18;98274.13;;;-5.98;100.00
65614;BME280;52283;49.292;10.572;2023-02-10T02:44:47;98274.91;;;-5.82;100.00
65614;BME280;52283;49.292;10.572;2023-02-10T02:47:27;98277.69;;;-5.78;100.00
65614;BME280;52283;49.292;10.572;2023-02-10T02:50:04;98283.75;;;-5.54;100.00
65614;BME280;52283;49.292;10.572;2023-02-10T02:52:56;98289.44;;;-5.43;100.00
65614;BME280;52283;49.292;10.572;2023-02-10T02:55:34;98291.56;;;-5.36;100.00
65614;BME280;52283;49.292;10.572;2023-02-10T02:58:09;98291.53;;;-5.20;100.00
65614;BME280;52283;49.292;10.572;2023-02-10T03:00:39;98297.28;;;-5.06;100.00
65614;BME280;52283;49.292;10.572;2023-02-10T03:03:08;98297.72;;;-5.39;100.00
65614;BME280;52283;49.292;10.572;2023-02-10T03:05:35;98293.06;;;-5.86;100.00
65614;BME280;52283;49.292;10.572;2023-02-10T03:08:01;98297.56;;;-5.94;100.00
65614;BME280;52283;49.292;10.572;2023-02-10T03:10:28;98291.25;;;-5.98;100.00
65614;BME280;52283;49.292;10.572;2023-02-10T03:12:54;98286.91;;;-5.83;100.00
65614;BME280;52283;49.292;10.572;2023-02-10T03:15:21;98286.06;;;-6.03;100.00
65614;BME280;52283;49.292;10.572;2023-02-10T03:17:47;98275.59;;;-5.69;100.00
65614;BME280;52283;49.292;10.572;2023-02-10T03:20:15;98279.09;;;-5.85;100.00
65614;BME280;52283;49.292;10.572;2023-02-10T03:22:42;98284.03;;;-5.59;100.00
65614;BME280;52283;49.292;10.572;2023-02-10T03:25:09;98278.16;;;-5.76;100.00
65614;BME280;52283;49.292;10.572;2023-02-10T03:27:36;98284.66;;;-5.81;100.00
65614;BME280;52283;49.292;10.572;2023-02-10T03:30:03;98272.50;;;-5.68;100.00
65614;BME280;52283;49.292;10.572;2023-02-10T03:32:29;98273.84;;;-5.62;100.00
65614;BME280;52283;49.292;10.572;2023-02-10T03:34:56;98271.34;;;-5.35;100.00
65614;BME280;52283;49.292;10.572;2023-02-10T03:37:23;98265.06;;;-5.01;100.00
65614;BME280;52283;49.292;10.572;2023-02-10T03:39:50;98267.47;;;-4.80;100.00
65614;BME280;52283;49.292;10.572;2023-02-10T03:42:16;98270.47;;;-5.04;100.00
65614;BME280;52283;49.292;10.572;2023-02-10T03:44:43;98271.63;;;-5.40;100.00
65614;BME280;52283;49.292;10.572;2023-02-10T03:47:09;98288.00;;;-6.03;100.00
65614;BME280;52283;49.292;10.572;2023-02-10T03:49:36;98293.19;;;-6.42;100.00
65614;BME280;52283;49.292;10.572;2023-02-10T03:52:02;98287.19;;;-6.20;100.00
65614;BME280;52283;49.292;10.572;2023-02-10T03:54:30;98279.38;;;-6.21;100.00
65614;BME280;52283;49.292;10.572;2023-02-10T03:56:57;98290.34;;;-6.18;100.00
65614;BME280;52283;49.292;10.572;2023-02-10T03:59:23;98299.00;;;-6.28;100.00
65614;BME280;52283;49.292;10.572;2023-02-10T04:01:50;98303.28;;;-6.42;100.00
65614;BME280;52283;49.292;10.572;2023-02-10T04:04:17;98305.78;;;-6.50;100.00
65614;BME280;52283;49.292;10.572;2023-02-10T04:06:44;98299.72;;;-6.59;100.00
65614;BME280;52283;49.292;10.572;2023-02-10T04:09:10;98314.72;;;-6.65;100.00
65614;BME280;52283;49.292;10.572;2023-02-10T04:11:38;98310.41;;;-6.66;100.00
65614;BME280;52283;49.292;10.572;2023-02-10T04:14:04;98325.06;;;-6.55;100.00
65614;BME280;52283;49.292;10.572;2023-02-10T04:16:31;98330.53;;;-6.55;100.00
65614;BME280;52283;49.292;10.572;2023-02-10T04:18:59;98330.53;;;-6.55;100.00
65614;BME280;52283;49.292;10.572;2023-02-10T04:21:25;98322.25;;;-6.58;100.00
65614;BME280;52283;49.292;10.572;2023-02-10T04:23:52;98329.47;;;-6.78;100.00
65614;BME280;52283;49.292;10.572;2023-02-10T04:26:19;98326.59;;;-6.69;100.00
65614;BME280;52283;49.292;10.572;2023-02-10T04:28:46;98324.34;;;-6.39;100.00
65614;BME280;52283;49.292;10.572;2023-02-10T04:31:13;98327.91;;;-6.07;100.00
65614;BME280;52283;49.292;10.572;2023-02-10T04:33:40;98325.41;;;-6.00;100.00
65614;BME280;52283;49.292;10.572;2023-02-10T04:36:06;98332.09;;;-5.98;100.00
65614;BME280;52283;49.292;10.572;2023-02-10T04:38:33;98334.59;;;-5.89;100.00
65614;BME280;52283;49.292;10.572;2023-02-10T04:40:59;98345.16;;;-5.72;100.00
65614;BME280;52283;49.292;10.572;2023-02-10T04:43:28;98340.41;;;-5.75;100.00
65614;BME280;52283;49.292;10.572;2023-02-10T04:45:55;98352.91;;;-5.90;100.00
65614;BME280;52283;49.292;10.572;2023-02-10T04:48:22;98347.53;;;-6.02;100.00
65614;BME280;52283;49.292;10.572;2023-02-10T04:50:48;98345.69;;;-6.26;100.00
65614;BME280;52283;49.292;10.572;2023-02-10T04:53:15;98355.50;;;-6.09;100.00
65614;BME280;52283;49.292;10.572;2023-02-10T04:55:42;98360.16;;;-6.09;100.00
65614;BME280;52283;49.292;10.572;2023-02-10T04:58:08;98353.41;;;-6.00;100.00
65614;BME280;52283;49.292;10.572;2023-02-10T05:00:34;98357.59;;;-5.87;100.00
65614;BME280;52283;49.292;10.572;2023-02-10T05:03:02;98359.84;;;-5.61;100.00
65614;BME280;52283;49.292;10.572;2023-02-10T05:05:29;98352.56;;;-5.41;100.00
65614;BME280;52283;49.292;10.572;2023-02-10T05:07:55;98343.31;;;-5.20;100.00
65614;BME280;52283;49.292;10.572;2023-02-10T05:10:22;98344.69;;;-4.95;100.00
65614;BME280;52283;49.292;10.572;2023-02-10T05:12:48;98346.56;;;-4.80;100.00
65614;BME280;52283;49.292;10.572;2023-02-10T05:15:15;98348.53;;;-4.61;100.00
65614;BME280;52283;49.292;10.572;2023-02-10T05:17:41;98346.56;;;-4.80;100.00
65614;BME280;52283;49.292;10.572;2023-02-10T05:20:10;98351.66;;;-5.13;100.00
65614;BME280;52283;49.292;10.572;2023-02-10T05:22:37;98351.13;;;-5.66;100.00
65614;BME280;52283;49.292;10.572;2023-02-10T05:25:04;98355.09;;;-5.79;100.00
65614;BME280;52283;49.292;10.572;2023-02-10T05:27:31;98360.34;;;-6.02;100.00
65614;BME280;52283;49.292;10.572;2023-02-10T05:29:57;98367.44;;;-6.13;100.00
65614;BME280;52283;49.292;10.572;2023-02-10T05:32:24;98361.09;;;-6.18;100.00
65614;BME280;52283;49.292;10.572;2023-02-10T05:34:51;98353.13;;;-6.38;100.00
65614;BME280;52283;49.292;10.572;2023-02-10T05:37:19;98355.00;;;-6.55;100.00
65614;BME280;52283;49.292;10.572;2023-02-10T05:39:46;98359.56;;;-6.71;100.00
65614;BME280;52283;49.292;10.572;2023-02-10T05:42:12;98367.34;;;-6.57;100.00
65614;BME280;52283;49.292;10.572;2023-02-10T05:44:39;98357.41;;;-6.65;100.00
65614;BME280;52283;49.292;10.572;2023-02-10T05:47:05;98373.59;;;-6.57;100.00
65614;BME280;52283;49.292;10.572;2023-02-10T05:49:32;98370.19;;;-6.54;100.00
65614;BME280;52283;49.292;10.572;2023-02-10T05:51:58;98369.09;;;-6.65;100.00
65614;BME280;52283;49.292;10.572;2023-02-10T05:54:26;98371.69;;;-6.68;100.00
65614;BME280;52283;49.292;10.572;2023-02-10T05:56:52;98370.78;;;-6.60;100.00
65614;BME280;52283;49.292;10.572;2023-02-10T05:59:19;98369.59;;;-6.47;100.00
65614;BME280;52283;49.292;10.572;2023-02-10T06:01:45;98368.94;;;-6.28;100.00
65614;BME280;52283;49.292;10.572;2023-02-10T06:04:12;98386.78;;;-6.03;100.00
65614;BME280;52283;49.292;10.572;2023-02-10T06:06:38;98391.84;;;-6.57;100.00
65614;BME280;52283;49.292;10.572;2023-02-10T06:09:05;98397.63;;;-6.71;100.00
65614;BME280;52283;49.292;10.572;2023-02-10T06:11:33;98394.03;;;-7.12;100.00
65614;BME280;52283;49.292;10.572;2023-02-10T06:14:00;98389.28;;;-6.90;100.00
65614;BME280;52283;49.292;10.572;2023-02-10T06:16:27;98396.47;;;-6.58;100.00
65614;BME280;52283;49.292;10.572;2023-02-10T06:18:54;98394.00;;;-6.63;100.00
65614;BME280;52283;49.292;10.572;2023-02-10T06:21:21;98400.16;;;-6.78;100.00
65614;BME280;52283;49.292;10.572;2023-02-10T06:23:48;98406.16;;;-6.97;100.00
65614;BME280;52283;49.292;10.572;2023-02-10T06:26:14;98407.53;;;-7.15;100.00
65614;BME280;52283;49.292;10.572;2023-02-10T06:28:42;98420.09;;;-6.86;100.00
65614;BME280;52283;49.292;10.572;2023-02-10T06:31:09;98423.81;;;-6.79;100.00
65614;BME280;52283;49.292;10.572;2023-02-10T06:33:35;98431.44;;;-6.84;100.00
65614;BME280;52283;49.292;10.572;2023-02-10T06:36:02;98425.56;;;-6.46;100.00
65614;BME280;52283;49.292;10.572;2023-02-10T06:38:30;98428.09;;;-6.13;100.00
65614;BME280;52283;49.292;10.572;2023-02-10T06:40:57;98431.44;;;-6.04;100.00
65614;BME280;52283;49.292;10.572;2023-02-10T06:43:23;98435.06;;;-5.84;100.00
65614;BME280;52283;49.292;10.572;2023-02-10T06:45:51;98435.31;;;-6.05;100.00
65614;BME280;52283;49.292;10.572;2023-02-10T06:48:17;98438.00;;;-6.21;100.00
65614;BME280;52283;49.292;10.572;2023-02-10T06:50:44;98453.22;;;-6.04;100.00
65614;BME280;52283;49.292;10.572;2023-02-10T06:53:10;98447.13;;;-6.01;100.00
65614;BME280;52283;49.292;10.572;2023-02-10T06:55:37;98445.63;;;-5.98;100.00
65614;BME280;52283;49.292;10.572;2023-02-10T06:58:03;98441.41;;;-6.24;100.00
65614;BME280;52283;49.292;10.572;2023-02-10T07:00:30;98450.19;;;-6.02;100.00
65614;BME280;52283;49.292;10.572;2023-02-10T07:02:59;98448.84;;;-5.65;100.00
65614;BME280;52283;49.292;10.572;2023-02-10T07:05:26;98443.47;;;-5.17;100.00
65614;BME280;52283;49.292;10.572;2023-02-10T07:07:52;98441.94;;;-5.46;100.00
65614;BME280;52283;49.292;10.572;2023-02-10T07:10:20;98447.16;;;-5.69;100.00
65614;BME280;52283;49.292;10.572;2023-02-10T07:12:46;98433.50;;;-5.41;100.00
65614;BME280;52283;49.292;10.572;2023-02-10T07:15:13;98448.03;;;-5.37;100.00
65614;BME280;52283;49.292;10.572;2023-02-10T07:17:40;98444.66;;;-5.46;100.00
65614;BME280;52283;49.292;10.572;2023-02-10T07:20:09;98441.34;;;-5.24;100.00
65614;BME280;52283;49.292;10.572;2023-02-10T07:22:35;98434.31;;;-5.41;100.00
65614;BME280;52283;49.292;10.572;2023-02-10T07:25:03;98438.16;;;-5.42;100.00
65614;BME280;52283;49.292;10.572;2023-02-10T07:27:29;98444.31;;;-5.45;100.00
65614;BME280;52283;49.292;10.572;2023-02-10T07:29:56;98442.72;;;-5.46;100.00
65614;BME280;52283;49.292;10.572;2023-02-10T07:32:22;98453.25;;;-5.44;100.00
65614;BME280;52283;49.292;10.572;2023-02-10T07:34:49;98450.69;;;-5.69;100.00
65614;BME280;52283;49.292;10.572;2023-02-10T07:37:18;98454.97;;;-5.68;100.00
65614;BME280;52283;49.292;10.572;2023-02-10T07:39:44;98448.94;;;-5.61;100.00
65614;BME280;52283;49.292;10.572;2023-02-10T07:42:11;98449.66;;;-5.48;100.00
65614;BME280;52283;49.292;10.572;2023-02-10T07:44:37;98453.00;;;-5.55;100.00
65614;BME280;52283;49.292;10.572;2023-02-10T07:47:04;98442.00;;;-5.43;100.00
65614;BME280;52283;49.292;10.572;2023-02-10T07:49:31;98432.91;;;-5.19;100.00
65614;BME280;52283;49.292;10.572;2023-02-10T07:51:57;98430.78;;;-5.10;100.00
65614;BME280;52283;49.292;10.572;2023-02-10T07:54:25;98445.81;;;-5.00;100.00
65614;BME280;52283;49.292;10.572;2023-02-10T07:56:52;98439.69;;;-4.97;100.00
65614;BME280;52283;49.292;10.572;2023-02-10T07:59:18;98444.59;;;-5.03;100.00
65614;BME280;52283;49.292;10.572;2023-02-10T08:01:45;98435.25;;;-4.86;100.00
65614;BME280;52283;49.292;10.572;2023-02-10T08:04:12;98437.81;;;-4.77;100.00
65614;BME280;52283;49.292;10.572;2023-02-10T08:06:38;98444.38;;;-4.63;100.00
65614;BME280;52283;49.292;10.572;2023-02-10T08:09:05;98451.63;;;-4.35;100.00
65614;BME280;52283;49.292;10.572;2023-02-10T08:11:33;98449.34;;;-4.33;100.00
65614;BME280;52283;49.292;10.572;2023-02-10T08:14:00;98455.53;;;-4.52;100.00
65614;BME280;52283;49.292;10.572;2023-02-10T08:16:27;98457.75;;;-4.57;100.00
65614;BME280;52283;49.292;10.572;2023-02-10T08:18:53;98464.47;;;-4.86;100.00
65614;BME280;52283;49.292;10.572;2023-02-10T08:21:20;98452.94;;;-4.80;100.00
65614;BME280;52283;49.292;10.572;2023-02-10T08:23:46;98460.59;;;-4.70;100.00
65614;BME280;52283;49.292;10.572;2023-02-10T08:26:20;98468.25;;;-4.40;100.00
65614;BME280;52283;49.292;10.572;2023-02-10T08:28:48;98466.97;;;-4.11;100.00
65614;BME280;52283;49.292;10.572;2023-02-10T08:31:15;98472.00;;;-3.94;100.00
65614;BME280;52283;49.292;10.572;2023-02-10T08:33:41;98470.94;;;-3.70;100.00
65614;BME280;52283;49.292;10.572;2023-02-10T08:36:10;98474.63;;;-3.40;100.00
65614;BME280;52283;49.292;10.572;2023-02-10T08:38:37;98481.34;;;-3.14;100.00
65614;BME280;52283;49.292;10.572;2023-02-10T08:41:04;98468.75;;;-2.96;100.00
65614;BME280;52283;49.292;10.572;2023-02-10T08:43:30;98471.31;;;-2.84;100.00
65614;BME280;52283;49.292;10.572;2023-02-10T08:45:59;98474.44;;;-2.85;100.00
65614;BME280;52283;49.292;10.572;2023-02-10T08:48:26;98470.81;;;-2.66;100.00
65614;BME280;52283;49.292;10.572;2023-02-10T08:50:53;98456.34;;;-2.67;100.00
65614;BME280;52283;49.292;10.572;2023-02-10T08:53:20;98462.84;;;-2.75;100.00
65614;BME280;52283;49.292;10.572;2023-02-10T08:55:55;98460.78;;;-2.59;100.00
65614;BME280;52283;49.292;10.572;2023-02-10T08:58:21;98461.19;;;-2.57;100.00
65614;BME280;52283;49.292;10.572;2023-02-10T09:00:48;98461.19;;;-2.57;100.00
65614;BME280;52283;49.292;10.572;2023-02-10T09:03:16;98461.13;;;-2.60;100.00
65614;BME280;52283;49.292;10.572;2023-02-10T09:05:42;98460.41;;;-2.57;100.00
65614;BME280;52283;49.292;10.572;2023-02-10T09:08:11;98462.09;;;-2.49;100.00
65614;BME280;52283;49.292;10.572;2023-02-10T09:10:38;98466.59;;;-2.34;100.00
65614;BME280;52283;49.292;10.572;2023-02-10T09:13:04;98470.44;;;-2.12;100.00
65614;BME280;52283;49.292;10.572;2023-02-10T09:15:34;98470.41;;;-2.16;100.00
65614;BME280;52283;49.292;10.572;2023-02-10T09:18:02;98479.84;;;-2.09;100.00
65614;BME280;52283;49.292;10.572;2023-02-10T09:20:30;98487.44;;;-1.99;100.00
65614;BME280;52283;49.292;10.572;2023-02-10T09:22:56;98487.28;;;-1.83;100.00
65614;BME280;52283;49.292;10.572;2023-02-10T09:25:23;98481.56;;;-1.68;100.00
65614;BME280;52283;49.292;10.572;2023-02-10T09:27:51;98486.06;;;-1.86;100.00
65614;BME280;52283;49.292;10.572;2023-02-10T09:30:19;98489.69;;;-1.78;100.00
65614;BME280;52283;49.292;10.572;2023-02-10T09:32:46;98492.22;;;-1.63;100.00
65614;BME280;52283;49.292;10.572;2023-02-10T09:35:13;98502.97;;;-1.80;100.00
65614;BME280;52283;49.292;10.572;2023-02-10T09:37:41;98491.84;;;-1.61;100.00
65614;BME280;52283;49.292;10.572;2023-02-10T09:40:11;98498.03;;;-1.68;100.00
65614;BME280;52283;49.292;10.572;2023-02-10T09:42:55;98495.53;;;-1.46;100.00
65614;BME280;52283;49.292;10.572;2023-02-10T09:45:25;98498.00;;;-1.38;100.00
65614;BME280;52283;49.292;10.572;2023-02-10T09:47:59;98490.75;;;-1.19;100.00
65614;BME280;52283;49.292;10.572;2023-02-10T09:50:45;98494.66;;;-1.20;100.00
65614;BME280;52283;49.292;10.572;2023-02-10T09:53:17;98489.94;;;-1.24;100.00
65614;BME280;52283;49.292;10.572;2023-02-10T09:55:48;98498.78;;;-1.04;100.00
65614;BME280;52283;49.292;10.572;2023-02-10T09:58:22;98496.13;;;-0.89;100.00
65614;BME280;52283;49.292;10.572;2023-02-10T10:00:55;98493.88;;;-0.80;100.00
65614;BME280;52283;49.292;10.572;2023-02-10T10:03:26;98498.13;;;-0.86;100.00
65614;BME280;52283;49.292;10.572;2023-02-10T10:06:00;98502.84;;;-0.83;100.00
65614;BME280;52283;49.292;10.572;2023-02-10T10:08:36;98499.94;;;-0.60;100.00
65614;BME280;52283;49.292;10.572;2023-02-10T10:11:12;98490.91;;;-0.61;100.00
65614;BME280;52283;49.292;10.572;2023-02-10T10:13:40;98491.66;;;-0.64;100.00
65614;BME280;52283;49.292;10.572;2023-02-10T10:16:14;98492.25;;;-0.41;100.00
65614;BME280;52283;49.292;10.572;2023-02-10T10:18:50;98491.91;;;-0.36;100.00
65614;BME280;52283;49.292;10.572;2023-02-10T10:21:23;98496.09;;;-0.49;100.00
65614;BME280;52283;49.292;10.572;2023-02-10T10:24:04;98496.25;;;-0.31;100.00
65614;BME280;52283;49.292;10.572;2023-02-10T10:26:37;98495.56;;;-0.14;100.00
65614;BME280;52283;49.292;10.572;2023-02-10T10:29:20;98488.81;;;-0.23;99.94
65614;BME280;52283;49.292;10.572;2023-02-10T10:31:50;98488.09;;;-0.17;99.95
65614;BME280;52283;49.292;10.572;2023-02-10T10:34:23;98490.47;;;-0.15;99.44
65614;BME280;52283;49.292;10.572;2023-02-10T10:36:55;98488.94;;;-0.02;98.59
65614;BME280;52283;49.292;10.572;2023-02-10T10:39:29;98494.50;;;0.02;97.92
65614;BME280;52283;49.292;10.572;2023-02-10T10:42:00;98498.91;;;0.20;97.56
65614;BME280;52283;49.292;10.572;2023-02-10T10:44:30;98494.94;;;0.11;97.27
65614;BME280;52283;49.292;10.572;2023-02-10T10:47:03;98485.19;;;0.24;96.05
65614;BME280;52283;49.292;10.572;2023-02-10T10:49:34;98483.25;;;0.35;95.46
65614;BME280;52283;49.292;10.572;2023-02-10T10:52:00;98469.91;;;0.41;94.70
65614;BME280;52283;49.292;10.572;2023-02-10T10:54:28;98471.91;;;0.44;93.63
65614;BME280;52283;49.292;10.572;2023-02-10T10:57:00;98472.72;;;0.58;93.47
65614;BME280;52283;49.292;10.572;2023-02-10T10:59:32;98468.84;;;0.63;92.36
65614;BME280;52283;49.292;10.572;2023-02-10T11:02:10;98462.94;;;0.65;92.58
65614;BME280;52283;49.292;10.572;2023-02-10T11:04:37;98466.09;;;0.77;91.36
65614;BME280;52283;49.292;10.572;2023-02-10T11:07:09;98457.47;;;0.82;90.73
65614;BME280;52283;49.292;10.572;2023-02-10T11:09:40;98456.72;;;1.03;90.68
65614;BME280;52283;49.292;10.572;2023-02-10T11:12:15;98454.75;;;1.18;90.60
65614;BME280;52283;49.292;10.572;2023-02-10T11:14:45;98455.94;;;1.24;89.27
65614;BME280;52283;49.292;10.572;2023-02-10T11:17:21;98448.88;;;1.48;89.21
65614;BME280;52283;49.292;10.572;2023-02-10T11:19:54;98450.03;;;1.40;89.10
65614;BME280;52283;49.292;10.572;2023-02-10T11:22:21;98447.28;;;1.36;88.58
65614;BME280;52283;49.292;10.572;2023-02-10T11:24:51;98452.00;;;1.43;88.45
65614;BME280;52283;49.292;10.572;2023-02-10T11:27:17;98450.44;;;1.45;87.85
65614;BME280;52283;49.292;10.572;2023-02-10T11:29:47;98450.84;;;1.47;88.04
65614;BME280;52283;49.292;10.572;2023-02-10T11:32:19;98436.22;;;1.90;86.68
65614;BME280;52283;49.292;10.572;2023-02-10T11:34:47;98433.63;;;2.45;83.99
65614;BME280;52283;49.292;10.572;2023-02-10T11:37:21;98430.06;;;3.14;79.49
65614;BME280;52283;49.292;10.572;2023-02-10T11:39:50;98427.88;;;2.88;77.99
65614;BME280;52283;49.292;10.572;2023-02-10T11:42:20;98426.63;;;2.99;78.14
65614;BME280;52283;49.292;10.572;2023-02-10T11:44:56;98421.13;;;3.44;75.08
65614;BME280;52283;49.292;10.572;2023-02-10T11:47:24;98419.00;;;3.18;74.86
65614;BME280;52283;49.292;10.572;2023-02-10T11:49:51;98415.38;;;3.24;74.85
65614;BME280;52283;49.292;10.572;2023-02-10T11:52:20;98410.19;;;3.30;75.14
65614;BME280;52283;49.292;10.572;2023-02-10T11:54:49;98402.78;;;4.02;73.57
65614;BME280;52283;49.292;10.572;2023-02-10T11:57:24;98407.31;;;3.44;72.58
65614;BME280;52283;49.292;10.572;2023-02-10T12:00:16;98412.47;;;3.42;74.40
65614;BME280;52283;49.292;10.572;2023-02-10T12:03:15;98406.28;;;3.27;76.11
65614;BME280;52283;49.292;10.572;2023-02-10T12:05:53;98401.25;;;3.60;72.88
65614;BME280;52283;49.292;10.572;2023-02-10T12:08:27;98419.25;;;2.79;75.48
65614;BME280;52283;49.292;10.572;2023-02-10T12:11:00;98419.34;;;2.64;77.58
65614;BME280;52283;49.292;10.572;2023-02-10T12:13:38;98416.34;;;2.34;79.04
65614;BME280;52283;49.292;10.572;2023-02-10T12:16:12;98424.97;;;2.43;80.01
65614;BME280;52283;49.292;10.572;2023-02-10T12:18:50;98421.06;;;3.03;78.33
65614;BME280;52283;49.292;10.572;2023-02-10T12:21:30;98401.25;;;3.60;76.26
65614;BME280;52283;49.292;10.572;2023-02-10T12:24:17;98391.25;;;4.07;73.54
65614;BME280;52283;49.292;10.572;2023-02-10T12:26:53;98388.06;;;4.09;70.65
65614;BME280;52283;49.292;10.572;2023-02-10T12:29:30;98384.63;;;4.01;72.48
65614;BME280;52283;49.292;10.572;2023-02-10T12:32:12;98389.75;;;3.65;74.53
65614;BME280;52283;49.292;10.572;2023-02-10T12:35:04;98390.38;;;4.14;71.77
65614;BME280;52283;49.292;10.572;2023-02-10T12:37:39;98392.25;;;4.24;70.39
65614;BME280;52283;49.292;10.572;2023-02-10T12:40:41;98378.59;;;3.76;72.06
65614;BME280;52283;49.292;10.572;2023-02-10T12:43:22;98383.34;;;3.72;72.16
65614;BME280;52283;49.292;10.572;2023-02-10T12:45:59;98381.47;;;3.99;71.11
65614;BME280;52283;49.292;10.572;2023-02-10T12:48:34;98384.03;;;4.17;72.22
65614;BME280;52283;49.292;10.572;2023-02-10T12:51:22;98381.22;;;3.86;72.34
65614;BME280;52283;49.292;10.572;2023-02-10T12:53:55;98382.78;;;3.87;72.74
65614;BME280;52283;49.292;10.572;2023-02-10T12:56:27;98376.00;;;3.58;73.53
65614;BME280;52283;49.292;10.572;2023-02-10T12:58:58;98374.75;;;3.62;73.08